sensor_id;sensor_type;location;lat;lon;timestamp;P1;durP1;ratioP1;P2;durP2;ratioP2
3052;SDS011;1536;51.098;6.414;2022-11-13T00:01:51;6.00;;;5.40;;
3052;SDS011;1536;51.098;6.414;2022-11-13T00:04:18;7.63;;;5.20;;
3052;SDS011;1536;51.098;6.414;2022-11-13T00:06:45;8.27;;;5.30;;
3052;SDS011;1536;51.098;6.414;2022-11-13T00:09:12;9.53;;;5.73;;
3052;SDS011;1536;51.098;6.414;2022-11-13T00:11:38;8.68;;;5.70;;
3052;SDS011;1536;51.098;6.414;2022-11-13T00:14:05;5.80;;;5.30;;
3052;SDS011;1536;51.098;6.414;2022-11-13T00:16:33;6.13;;;5.53;;
3052;SDS011;1536;51.098;6.414;2022-11-13T00:19:00;7.65;;;6.32;;
3052;SDS011;1536;51.098;6.414;2022-11-13T00:21:28;11.83;;;6.00;;
3052;SDS011;1536;51.098;6.414;2022-11-13T00:23:55;6.70;;;5.95;;
3052;SDS011;1536;51.098;6.414;2022-11-13T00:26:22;8.75;;;5.60;;
3052;SDS011;1536;51.098;6.414;2022-11-13T00:28:51;6.07;;;5.47;;
3052;SDS011;1536;51.098;6.414;2022-11-13T00:31:19;8.27;;;6.00;;
3052;SDS011;1536;51.098;6.414;2022-11-13T00:33:47;8.40;;;6.47;;
3052;SDS011;1536;51.098;6.414;2022-11-13T00:36:15;14.47;;;6.90;;
3052;SDS011;1536;51.098;6.414;2022-11-13T00:38:44;7.60;;;5.40;;
3052;SDS011;1536;51.098;6.414;2022-11-13T00:41:11;9.33;;;5.40;;
3052;SDS011;1536;51.098;6.414;2022-11-13T00:43:38;7.65;;;5.75;;
3052;SDS011;1536;51.098;6.414;2022-11-13T00:46:05;7.37;;;5.60;;
3052;SDS011;1536;51.098;6.414;2022-11-13T00:48:32;6.73;;;5.73;;
3052;SDS011;1536;51.098;6.414;2022-11-13T00:51:01;6.60;;;6.00;;
3052;SDS011;1536;51.098;6.414;2022-11-13T00:53:28;16.77;;;6.43;;
3052;SDS011;1536;51.098;6.414;2022-11-13T00:55:54;8.13;;;5.77;;
3052;SDS011;1536;51.098;6.414;2022-11-13T00:58:21;6.20;;;5.60;;
3052;SDS011;1536;51.098;6.414;2022-11-13T01:00:48;12.20;;;6.37;;
3052;SDS011;1536;51.098;6.414;2022-11-13T01:03:15;7.20;;;5.40;;
3052;SDS011;1536;51.098;6.414;2022-11-13T01:05:43;8.00;;;6.17;;
3052;SDS011;1536;51.098;6.414;2022-11-13T01:08:14;6.73;;;5.20;;
3052;SDS011;1536;51.098;6.414;2022-11-13T01:10:42;7.60;;;5.77;;
3052;SDS011;1536;51.098;6.414;2022-11-13T01:13:10;6.60;;;5.13;;
3052;SDS011;1536;51.098;6.414;2022-11-13T01:15:38;5.67;;;5.10;;
3052;SDS011;1536;51.098;6.414;2022-11-13T01:18:05;6.97;;;5.60;;
3052;SDS011;1536;51.098;6.414;2022-11-13T01:20:32;8.13;;;5.23;;
3052;SDS011;1536;51.098;6.414;2022-11-13T01:22:58;6.50;;;5.30;;
3052;SDS011;1536;51.098;6.414;2022-11-13T01:25:27;6.60;;;5.53;;
3052;SDS011;1536;51.098;6.414;2022-11-13T01:27:54;9.70;;;5.33;;
3052;SDS011;1536;51.098;6.414;2022-11-13T01:30:21;11.00;;;5.57;;
3052;SDS011;1536;51.098;6.414;2022-11-13T01:32:49;6.93;;;5.07;;
3052;SDS011;1536;51.098;6.414;2022-11-13T01:35:16;9.00;;;5.57;;
3052;SDS011;1536;51.098;6.414;2022-11-13T01:37:43;9.97;;;5.00;;
3052;SDS011;1536;51.098;6.414;2022-11-13T01:40:11;6.07;;;5.17;;
3052;SDS011;1536;51.098;6.414;2022-11-13T01:42:40;6.60;;;5.80;;
3052;SDS011;1536;51.098;6.414;2022-11-13T01:48:11;6.83;;;5.57;;
3052;SDS011;1536;51.098;6.414;2022-11-13T01:50:38;13.97;;;6.13;;
3052;SDS011;1536;51.098;6.414;2022-11-13T01:53:05;6.20;;;5.40;;
3052;SDS011;1536;51.098;6.414;2022-11-13T01:55:33;8.10;;;6.17;;
3052;SDS011;1536;51.098;6.414;2022-11-13T01:58:01;10.50;;;5.90;;
3052;SDS011;1536;51.098;6.414;2022-11-13T02:00:30;9.97;;;6.60;;
3052;SDS011;1536;51.098;6.414;2022-11-13T02:02:56;8.90;;;6.80;;
3052;SDS011;1536;51.098;6.414;2022-11-13T02:05:23;6.30;;;5.37;;
3052;SDS011;1536;51.098;6.414;2022-11-13T02:07:50;10.00;;;5.60;;
3052;SDS011;1536;51.098;6.414;2022-11-13T02:10:16;9.63;;;5.97;;
3052;SDS011;1536;51.098;6.414;2022-11-13T02:12:45;9.93;;;5.40;;
3052;SDS011;1536;51.098;6.414;2022-11-13T02:15:16;15.93;;;6.53;;
3052;SDS011;1536;51.098;6.414;2022-11-13T02:17:44;19.17;;;6.07;;
3052;SDS011;1536;51.098;6.414;2022-11-13T02:20:13;12.10;;;6.67;;
3052;SDS011;1536;51.098;6.414;2022-11-13T02:22:43;9.37;;;6.20;;
3052;SDS011;1536;51.098;6.414;2022-11-13T02:25:14;12.50;;;6.80;;
3052;SDS011;1536;51.098;6.414;2022-11-13T02:27:44;11.73;;;6.00;;
3052;SDS011;1536;51.098;6.414;2022-11-13T02:30:14;13.10;;;6.90;;
3052;SDS011;1536;51.098;6.414;2022-11-13T02:32:43;12.40;;;6.80;;
3052;SDS011;1536;51.098;6.414;2022-11-13T02:35:11;7.70;;;5.73;;
3052;SDS011;1536;51.098;6.414;2022-11-13T02:37:40;18.20;;;6.40;;
3052;SDS011;1536;51.098;6.414;2022-11-13T02:40:07;6.47;;;5.60;;
3052;SDS011;1536;51.098;6.414;2022-11-13T02:42:36;11.33;;;6.93;;
3052;SDS011;1536;51.098;6.414;2022-11-13T02:45:03;10.33;;;6.17;;
3052;SDS011;1536;51.098;6.414;2022-11-13T02:47:30;10.60;;;5.57;;
3052;SDS011;1536;51.098;6.414;2022-11-13T02:49:57;11.00;;;5.65;;
3052;SDS011;1536;51.098;6.414;2022-11-13T02:52:24;10.25;;;6.05;;
3052;SDS011;1536;51.098;6.414;2022-11-13T02:54:51;9.00;;;6.83;;
3052;SDS011;1536;51.098;6.414;2022-11-13T02:57:18;7.80;;;6.40;;
3052;SDS011;1536;51.098;6.414;2022-11-13T02:59:46;8.97;;;5.80;;
3052;SDS011;1536;51.098;6.414;2022-11-13T03:02:12;11.30;;;6.40;;
3052;SDS011;1536;51.098;6.414;2022-11-13T03:04:39;9.48;;;6.95;;
3052;SDS011;1536;51.098;6.414;2022-11-13T03:07:06;10.90;;;5.87;;
3052;SDS011;1536;51.098;6.414;2022-11-13T03:09:33;7.53;;;5.53;;
3052;SDS011;1536;51.098;6.414;2022-11-13T03:11:59;11.63;;;5.93;;
3052;SDS011;1536;51.098;6.414;2022-11-13T03:14:26;12.77;;;6.47;;
3052;SDS011;1536;51.098;6.414;2022-11-13T03:16:54;7.73;;;5.57;;
3052;SDS011;1536;51.098;6.414;2022-11-13T03:19:21;10.05;;;6.25;;
3052;SDS011;1536;51.098;6.414;2022-11-13T03:21:48;15.45;;;6.40;;
3052;SDS011;1536;51.098;6.414;2022-11-13T03:24:14;10.02;;;6.82;;
3052;SDS011;1536;51.098;6.414;2022-11-13T03:26:41;9.52;;;5.85;;
3052;SDS011;1536;51.098;6.414;2022-11-13T03:29:08;10.25;;;6.00;;
3052;SDS011;1536;51.098;6.414;2022-11-13T03:31:34;6.30;;;5.70;;
3052;SDS011;1536;51.098;6.414;2022-11-13T03:34:02;8.60;;;5.90;;
3052;SDS011;1536;51.098;6.414;2022-11-13T03:36:29;7.78;;;6.45;;
3052;SDS011;1536;51.098;6.414;2022-11-13T03:38:56;8.00;;;5.60;;
3052;SDS011;1536;51.098;6.414;2022-11-13T03:41:23;8.82;;;6.30;;
3052;SDS011;1536;51.098;6.414;2022-11-13T03:43:49;7.05;;;5.65;;
3052;SDS011;1536;51.098;6.414;2022-11-13T03:46:16;7.30;;;5.53;;
3052;SDS011;1536;51.098;6.414;2022-11-13T03:48:43;7.10;;;6.10;;
3052;SDS011;1536;51.098;6.414;2022-11-13T03:51:11;6.00;;;5.03;;
3052;SDS011;1536;51.098;6.414;2022-11-13T03:53:37;8.82;;;5.93;;
3052;SDS011;1536;51.098;6.414;2022-11-13T03:56:04;11.50;;;5.15;;
3052;SDS011;1536;51.098;6.414;2022-11-13T03:58:31;10.65;;;5.53;;
3052;SDS011;1536;51.098;6.414;2022-11-13T04:00:58;6.00;;;5.47;;
3052;SDS011;1536;51.098;6.414;2022-11-13T04:03:25;7.47;;;5.70;;
3052;SDS011;1536;51.098;6.414;2022-11-13T04:05:51;6.43;;;5.30;;
3052;SDS011;1536;51.098;6.414;2022-11-13T04:08:19;6.00;;;5.32;;
3052;SDS011;1536;51.098;6.414;2022-11-13T04:10:46;14.02;;;6.00;;
3052;SDS011;1536;51.098;6.414;2022-11-13T04:13:13;9.50;;;5.45;;
3052;SDS011;1536;51.098;6.414;2022-11-13T04:15:39;14.03;;;5.57;;
3052;SDS011;1536;51.098;6.414;2022-11-13T04:18:06;7.67;;;6.33;;
3052;SDS011;1536;51.098;6.414;2022-11-13T04:20:33;11.38;;;5.88;;
3052;SDS011;1536;51.098;6.414;2022-11-13T04:23:00;10.15;;;5.50;;
3052;SDS011;1536;51.098;6.414;2022-11-13T04:25:33;12.43;;;5.80;;
3052;SDS011;1536;51.098;6.414;2022-11-13T04:27:59;14.63;;;5.67;;
3052;SDS011;1536;51.098;6.414;2022-11-13T04:30:26;16.83;;;5.80;;
3052;SDS011;1536;51.098;6.414;2022-11-13T04:32:53;17.50;;;5.90;;
3052;SDS011;1536;51.098;6.414;2022-11-13T04:35:19;11.33;;;6.07;;
3052;SDS011;1536;51.098;6.414;2022-11-13T04:37:46;8.23;;;5.32;;
3052;SDS011;1536;51.098;6.414;2022-11-13T04:40:13;6.65;;;4.85;;
3052;SDS011;1536;51.098;6.414;2022-11-13T04:42:41;10.25;;;4.80;;
3052;SDS011;1536;51.098;6.414;2022-11-13T04:45:13;8.50;;;4.57;;
3052;SDS011;1536;51.098;6.414;2022-11-13T04:47:40;11.98;;;4.43;;
3052;SDS011;1536;51.098;6.414;2022-11-13T04:50:07;5.70;;;5.20;;
3052;SDS011;1536;51.098;6.414;2022-11-13T04:52:34;5.20;;;4.70;;
3052;SDS011;1536;51.098;6.414;2022-11-13T04:55:00;10.23;;;4.90;;
3052;SDS011;1536;51.098;6.414;2022-11-13T04:57:27;6.37;;;4.97;;
3052;SDS011;1536;51.098;6.414;2022-11-13T04:59:55;6.43;;;5.03;;
3052;SDS011;1536;51.098;6.414;2022-11-13T05:02:22;8.40;;;5.07;;
3052;SDS011;1536;51.098;6.414;2022-11-13T05:04:49;6.50;;;4.87;;
3052;SDS011;1536;51.098;6.414;2022-11-13T05:07:16;6.13;;;5.50;;
3052;SDS011;1536;51.098;6.414;2022-11-13T05:09:43;7.20;;;5.00;;
3052;SDS011;1536;51.098;6.414;2022-11-13T05:12:10;5.37;;;4.97;;
3052;SDS011;1536;51.098;6.414;2022-11-13T05:14:37;5.00;;;4.60;;
3052;SDS011;1536;51.098;6.414;2022-11-13T05:17:06;8.07;;;5.23;;
3052;SDS011;1536;51.098;6.414;2022-11-13T05:19:35;7.50;;;4.90;;
3052;SDS011;1536;51.098;6.414;2022-11-13T05:22:02;7.53;;;5.50;;
3052;SDS011;1536;51.098;6.414;2022-11-13T05:24:29;7.47;;;4.77;;
3052;SDS011;1536;51.098;6.414;2022-11-13T05:26:56;7.67;;;5.57;;
3052;SDS011;1536;51.098;6.414;2022-11-13T05:29:23;8.67;;;5.00;;
3052;SDS011;1536;51.098;6.414;2022-11-13T05:31:50;7.47;;;5.27;;
3052;SDS011;1536;51.098;6.414;2022-11-13T05:34:18;6.93;;;5.10;;
3052;SDS011;1536;51.098;6.414;2022-11-13T05:36:44;5.47;;;4.93;;
3052;SDS011;1536;51.098;6.414;2022-11-13T05:39:11;7.50;;;5.33;;
3052;SDS011;1536;51.098;6.414;2022-11-13T05:41:38;6.60;;;5.00;;
3052;SDS011;1536;51.098;6.414;2022-11-13T05:44:05;6.30;;;5.00;;
3052;SDS011;1536;51.098;6.414;2022-11-13T05:46:32;5.70;;;5.07;;
3052;SDS011;1536;51.098;6.414;2022-11-13T05:48:59;8.30;;;5.03;;
3052;SDS011;1536;51.098;6.414;2022-11-13T05:51:29;9.27;;;4.95;;
3052;SDS011;1536;51.098;6.414;2022-11-13T05:53:57;7.20;;;4.85;;
3052;SDS011;1536;51.098;6.414;2022-11-13T05:56:25;13.75;;;5.90;;
3052;SDS011;1536;51.098;6.414;2022-11-13T05:58:53;13.43;;;5.63;;
3052;SDS011;1536;51.098;6.414;2022-11-13T06:01:22;6.25;;;5.20;;
3052;SDS011;1536;51.098;6.414;2022-11-13T06:03:51;7.67;;;5.63;;
3052;SDS011;1536;51.098;6.414;2022-11-13T06:06:20;9.95;;;5.72;;
3052;SDS011;1536;51.098;6.414;2022-11-13T06:08:49;9.63;;;5.65;;
3052;SDS011;1536;51.098;6.414;2022-11-13T06:11:17;11.20;;;5.93;;
3052;SDS011;1536;51.098;6.414;2022-11-13T06:13:45;9.35;;;5.15;;
3052;SDS011;1536;51.098;6.414;2022-11-13T06:16:14;8.98;;;5.45;;
3052;SDS011;1536;51.098;6.414;2022-11-13T06:18:42;6.30;;;5.70;;
3052;SDS011;1536;51.098;6.414;2022-11-13T06:21:11;8.95;;;5.10;;
3052;SDS011;1536;51.098;6.414;2022-11-13T06:23:39;9.10;;;5.72;;
3052;SDS011;1536;51.098;6.414;2022-11-13T06:26:08;8.70;;;5.10;;
3052;SDS011;1536;51.098;6.414;2022-11-13T06:28:36;5.82;;;5.00;;
3052;SDS011;1536;51.098;6.414;2022-11-13T06:31:04;6.95;;;6.10;;
3052;SDS011;1536;51.098;6.414;2022-11-13T06:33:32;8.82;;;4.75;;
3052;SDS011;1536;51.098;6.414;2022-11-13T06:36:00;5.10;;;4.60;;
3052;SDS011;1536;51.098;6.414;2022-11-13T06:38:28;14.70;;;4.90;;
3052;SDS011;1536;51.098;6.414;2022-11-13T06:40:56;7.90;;;5.30;;
3052;SDS011;1536;51.098;6.414;2022-11-13T06:43:24;7.93;;;5.30;;
3052;SDS011;1536;51.098;6.414;2022-11-13T06:45:51;12.85;;;5.43;;
3052;SDS011;1536;51.098;6.414;2022-11-13T06:48:18;6.35;;;5.28;;
3052;SDS011;1536;51.098;6.414;2022-11-13T06:50:44;8.07;;;5.07;;
3052;SDS011;1536;51.098;6.414;2022-11-13T06:53:11;6.82;;;5.15;;
3052;SDS011;1536;51.098;6.414;2022-11-13T06:55:41;5.72;;;5.13;;
3052;SDS011;1536;51.098;6.414;2022-11-13T06:58:08;10.27;;;5.63;;
3052;SDS011;1536;51.098;6.414;2022-11-13T07:00:36;6.63;;;4.50;;
3052;SDS011;1536;51.098;6.414;2022-11-13T07:03:03;5.00;;;4.50;;
3052;SDS011;1536;51.098;6.414;2022-11-13T07:05:30;12.45;;;5.93;;
3052;SDS011;1536;51.098;6.414;2022-11-13T07:07:57;7.40;;;4.90;;
3052;SDS011;1536;51.098;6.414;2022-11-13T07:10:23;5.25;;;4.70;;
3052;SDS011;1536;51.098;6.414;2022-11-13T07:12:50;6.88;;;4.80;;
3052;SDS011;1536;51.098;6.414;2022-11-13T07:15:17;5.47;;;4.07;;
3052;SDS011;1536;51.098;6.414;2022-11-13T07:17:45;7.97;;;4.72;;
3052;SDS011;1536;51.098;6.414;2022-11-13T07:20:11;8.18;;;5.28;;
3052;SDS011;1536;51.098;6.414;2022-11-13T07:22:38;5.40;;;4.88;;
3052;SDS011;1536;51.098;6.414;2022-11-13T07:25:05;4.77;;;4.10;;
3052;SDS011;1536;51.098;6.414;2022-11-13T07:27:32;6.18;;;4.93;;
3052;SDS011;1536;51.098;6.414;2022-11-13T07:29:59;6.35;;;4.75;;
3052;SDS011;1536;51.098;6.414;2022-11-13T07:32:26;5.00;;;4.50;;
3052;SDS011;1536;51.098;6.414;2022-11-13T07:34:54;7.85;;;4.55;;
3052;SDS011;1536;51.098;6.414;2022-11-13T07:37:21;4.70;;;4.30;;
3052;SDS011;1536;51.098;6.414;2022-11-13T07:39:48;7.07;;;5.03;;
3052;SDS011;1536;51.098;6.414;2022-11-13T07:42:14;9.20;;;4.65;;
3052;SDS011;1536;51.098;6.414;2022-11-13T07:44:41;6.73;;;4.67;;
3052;SDS011;1536;51.098;6.414;2022-11-13T07:47:08;5.13;;;4.63;;
3052;SDS011;1536;51.098;6.414;2022-11-13T07:49:34;10.17;;;5.53;;
3052;SDS011;1536;51.098;6.414;2022-11-13T07:52:02;5.20;;;4.70;;
3052;SDS011;1536;51.098;6.414;2022-11-13T07:54:29;6.47;;;4.33;;
3052;SDS011;1536;51.098;6.414;2022-11-13T07:56:56;5.43;;;4.20;;
3052;SDS011;1536;51.098;6.414;2022-11-13T07:59:23;7.00;;;4.68;;
3052;SDS011;1536;51.098;6.414;2022-11-13T08:01:49;5.57;;;5.07;;
3052;SDS011;1536;51.098;6.414;2022-11-13T08:04:16;6.20;;;5.10;;
3052;SDS011;1536;51.098;6.414;2022-11-13T08:06:43;6.23;;;4.73;;
3052;SDS011;1536;51.098;6.414;2022-11-13T08:09:11;4.97;;;4.53;;
3052;SDS011;1536;51.098;6.414;2022-11-13T08:11:37;5.13;;;4.23;;
3052;SDS011;1536;51.098;6.414;2022-11-13T08:14:04;10.03;;;5.23;;
3052;SDS011;1536;51.098;6.414;2022-11-13T08:16:31;8.23;;;4.67;;
3052;SDS011;1536;51.098;6.414;2022-11-13T08:18:57;6.33;;;5.00;;
3052;SDS011;1536;51.098;6.414;2022-11-13T08:21:24;7.80;;;5.13;;
3052;SDS011;1536;51.098;6.414;2022-11-13T08:23:51;5.53;;;5.00;;
3052;SDS011;1536;51.098;6.414;2022-11-13T08:26:19;7.10;;;4.47;;
3052;SDS011;1536;51.098;6.414;2022-11-13T08:28:46;5.40;;;4.10;;
3052;SDS011;1536;51.098;6.414;2022-11-13T08:31:14;4.57;;;4.13;;
3052;SDS011;1536;51.098;6.414;2022-11-13T08:33:41;6.40;;;4.30;;
3052;SDS011;1536;51.098;6.414;2022-11-13T08:36:09;7.30;;;4.17;;
3052;SDS011;1536;51.098;6.414;2022-11-13T08:38:36;6.83;;;5.03;;
3052;SDS011;1536;51.098;6.414;2022-11-13T08:41:03;6.77;;;4.70;;
3052;SDS011;1536;51.098;6.414;2022-11-13T08:43:32;5.87;;;4.40;;
3052;SDS011;1536;51.098;6.414;2022-11-13T08:45:59;4.87;;;4.40;;
3052;SDS011;1536;51.098;6.414;2022-11-13T08:48:26;7.23;;;3.80;;
3052;SDS011;1536;51.098;6.414;2022-11-13T08:50:53;4.60;;;3.97;;
3052;SDS011;1536;51.098;6.414;2022-11-13T08:53:21;8.50;;;4.50;;
3052;SDS011;1536;51.098;6.414;2022-11-13T08:55:48;12.23;;;5.73;;
3052;SDS011;1536;51.098;6.414;2022-11-13T08:58:15;10.13;;;4.27;;
3052;SDS011;1536;51.098;6.414;2022-11-13T09:00:43;8.27;;;4.03;;
3052;SDS011;1536;51.098;6.414;2022-11-13T09:03:10;6.23;;;3.97;;
3052;SDS011;1536;51.098;6.414;2022-11-13T09:05:37;7.20;;;4.30;;
3052;SDS011;1536;51.098;6.414;2022-11-13T09:08:04;13.53;;;4.07;;
3052;SDS011;1536;51.098;6.414;2022-11-13T09:10:31;6.97;;;4.67;;
3052;SDS011;1536;51.098;6.414;2022-11-13T09:12:59;9.47;;;4.10;;
3052;SDS011;1536;51.098;6.414;2022-11-13T09:15:28;8.13;;;4.57;;
3052;SDS011;1536;51.098;6.414;2022-11-13T09:17:58;9.43;;;4.57;;
3052;SDS011;1536;51.098;6.414;2022-11-13T09:20:26;8.87;;;4.17;;
3052;SDS011;1536;51.098;6.414;2022-11-13T09:22:57;6.50;;;4.60;;
3052;SDS011;1536;51.098;6.414;2022-11-13T09:25:24;8.07;;;4.67;;
3052;SDS011;1536;51.098;6.414;2022-11-13T09:27:52;9.97;;;5.33;;
3052;SDS011;1536;51.098;6.414;2022-11-13T09:30:20;9.53;;;5.23;;
3052;SDS011;1536;51.098;6.414;2022-11-13T09:32:47;9.90;;;4.80;;
3052;SDS011;1536;51.098;6.414;2022-11-13T09:35:18;10.67;;;4.43;;
3052;SDS011;1536;51.098;6.414;2022-11-13T09:37:58;10.50;;;4.37;;
3052;SDS011;1536;51.098;6.414;2022-11-13T09:40:26;9.40;;;4.47;;
3052;SDS011;1536;51.098;6.414;2022-11-13T09:42:56;8.30;;;4.33;;
3052;SDS011;1536;51.098;6.414;2022-11-13T09:45:23;9.00;;;5.10;;
3052;SDS011;1536;51.098;6.414;2022-11-13T09:47:50;12.37;;;5.10;;
3052;SDS011;1536;51.098;6.414;2022-11-13T09:50:21;5.03;;;4.00;;
3052;SDS011;1536;51.098;6.414;2022-11-13T09:52:49;6.73;;;3.63;;
3052;SDS011;1536;51.098;6.414;2022-11-13T09:55:18;13.60;;;4.50;;
3052;SDS011;1536;51.098;6.414;2022-11-13T09:57:47;8.70;;;4.33;;
3052;SDS011;1536;51.098;6.414;2022-11-13T10:00:19;8.93;;;3.90;;
3052;SDS011;1536;51.098;6.414;2022-11-13T10:02:52;6.17;;;3.87;;
3052;SDS011;1536;51.098;6.414;2022-11-13T10:05:38;13.73;;;4.50;;
3052;SDS011;1536;51.098;6.414;2022-11-13T10:08:11;10.63;;;4.03;;
3052;SDS011;1536;51.098;6.414;2022-11-13T10:10:45;10.33;;;4.47;;
3052;SDS011;1536;51.098;6.414;2022-11-13T10:13:14;13.43;;;3.30;;
3052;SDS011;1536;51.098;6.414;2022-11-13T10:15:47;11.40;;;4.33;;
3052;SDS011;1536;51.098;6.414;2022-11-13T10:18:18;7.20;;;3.80;;
3052;SDS011;1536;51.098;6.414;2022-11-13T10:20:49;10.13;;;3.50;;
3052;SDS011;1536;51.098;6.414;2022-11-13T10:23:20;12.80;;;3.93;;
3052;SDS011;1536;51.098;6.414;2022-11-13T10:25:49;11.00;;;4.27;;
3052;SDS011;1536;51.098;6.414;2022-11-13T10:28:16;11.43;;;3.70;;
3052;SDS011;1536;51.098;6.414;2022-11-13T10:30:44;10.73;;;4.17;;
3052;SDS011;1536;51.098;6.414;2022-11-13T10:33:13;10.00;;;3.83;;
3052;SDS011;1536;51.098;6.414;2022-11-13T10:35:43;5.23;;;3.60;;
3052;SDS011;1536;51.098;6.414;2022-11-13T10:38:19;3.87;;;3.23;;
3052;SDS011;1536;51.098;6.414;2022-11-13T10:40:49;6.87;;;3.17;;
3052;SDS011;1536;51.098;6.414;2022-11-13T10:43:17;5.53;;;2.83;;
3052;SDS011;1536;51.098;6.414;2022-11-13T10:45:52;5.97;;;2.83;;
3052;SDS011;1536;51.098;6.414;2022-11-13T10:48:21;11.67;;;3.10;;
3052;SDS011;1536;51.098;6.414;2022-11-13T10:50:54;8.03;;;3.53;;
3052;SDS011;1536;51.098;6.414;2022-11-13T10:53:24;8.17;;;3.10;;
3052;SDS011;1536;51.098;6.414;2022-11-13T10:55:53;8.30;;;3.00;;
3052;SDS011;1536;51.098;6.414;2022-11-13T10:58:22;6.83;;;2.90;;
3052;SDS011;1536;51.098;6.414;2022-11-13T11:00:49;4.90;;;2.57;;
3052;SDS011;1536;51.098;6.414;2022-11-13T11:03:18;7.10;;;2.87;;
3052;SDS011;1536;51.098;6.414;2022-11-13T11:05:50;5.00;;;2.50;;
3052;SDS011;1536;51.098;6.414;2022-11-13T11:08:22;4.97;;;2.40;;
3052;SDS011;1536;51.098;6.414;2022-11-13T11:10:55;2.93;;;2.50;;
3052;SDS011;1536;51.098;6.414;2022-11-13T11:13:41;3.67;;;2.90;;
3052;SDS011;1536;51.098;6.414;2022-11-13T11:16:10;2.90;;;2.70;;
3052;SDS011;1536;51.098;6.414;2022-11-13T11:18:44;2.97;;;2.10;;
3052;SDS011;1536;51.098;6.414;2022-11-13T11:21:15;6.23;;;2.83;;
3052;SDS011;1536;51.098;6.414;2022-11-13T11:23:48;4.70;;;2.43;;
3052;SDS011;1536;51.098;6.414;2022-11-13T11:26:21;5.40;;;2.00;;
3052;SDS011;1536;51.098;6.414;2022-11-13T11:28:52;3.40;;;2.20;;
3052;SDS011;1536;51.098;6.414;2022-11-13T11:31:29;4.07;;;2.60;;
3052;SDS011;1536;51.098;6.414;2022-11-13T11:34:05;4.33;;;2.20;;
3052;SDS011;1536;51.098;6.414;2022-11-13T11:36:40;3.00;;;2.33;;
3052;SDS011;1536;51.098;6.414;2022-11-13T11:39:20;3.20;;;2.40;;
3052;SDS011;1536;51.098;6.414;2022-11-13T11:41:56;4.30;;;2.40;;
3052;SDS011;1536;51.098;6.414;2022-11-13T11:44:31;3.67;;;2.50;;
3052;SDS011;1536;51.098;6.414;2022-11-13T11:47:03;5.80;;;3.27;;
3052;SDS011;1536;51.098;6.414;2022-11-13T11:49:36;5.57;;;2.80;;
3052;SDS011;1536;51.098;6.414;2022-11-13T11:52:07;3.00;;;2.60;;
3052;SDS011;1536;51.098;6.414;2022-11-13T11:54:47;4.77;;;3.13;;
3052;SDS011;1536;51.098;6.414;2022-11-13T11:57:30;3.20;;;2.60;;
3052;SDS011;1536;51.098;6.414;2022-11-13T12:00:05;5.50;;;2.90;;
3052;SDS011;1536;51.098;6.414;2022-11-13T12:02:44;3.30;;;2.20;;
3052;SDS011;1536;51.098;6.414;2022-11-13T12:05:21;3.17;;;2.73;;
3052;SDS011;1536;51.098;6.414;2022-11-13T12:07:56;5.97;;;2.73;;
3052;SDS011;1536;51.098;6.414;2022-11-13T12:10:36;3.73;;;3.10;;
3052;SDS011;1536;51.098;6.414;2022-11-13T12:13:12;4.23;;;2.70;;
3052;SDS011;1536;51.098;6.414;2022-11-13T12:15:53;3.10;;;2.70;;
3052;SDS011;1536;51.098;6.414;2022-11-13T12:18:26;2.80;;;2.57;;
3052;SDS011;1536;51.098;6.414;2022-11-13T12:21:04;2.90;;;2.47;;
3052;SDS011;1536;51.098;6.414;2022-11-13T12:23:47;3.63;;;2.70;;
3052;SDS011;1536;51.098;6.414;2022-11-13T12:26:30;2.73;;;2.40;;
3052;SDS011;1536;51.098;6.414;2022-11-13T12:29:04;6.00;;;3.03;;
3052;SDS011;1536;51.098;6.414;2022-11-13T12:31:42;2.90;;;2.27;;
3052;SDS011;1536;51.098;6.414;2022-11-13T12:34:20;5.27;;;2.33;;
3052;SDS011;1536;51.098;6.414;2022-11-13T12:36:53;3.93;;;2.87;;
3052;SDS011;1536;51.098;6.414;2022-11-13T12:39:29;2.93;;;2.43;;
3052;SDS011;1536;51.098;6.414;2022-11-13T12:42:10;3.17;;;2.30;;
3052;SDS011;1536;51.098;6.414;2022-11-13T12:44:47;3.10;;;2.80;;
3052;SDS011;1536;51.098;6.414;2022-11-13T12:47:19;3.33;;;2.63;;
3052;SDS011;1536;51.098;6.414;2022-11-13T12:49:46;8.10;;;2.70;;
3052;SDS011;1536;51.098;6.414;2022-11-13T12:52:23;9.43;;;2.87;;
3052;SDS011;1536;51.098;6.414;2022-11-13T12:54:49;5.90;;;3.27;;
3052;SDS011;1536;51.098;6.414;2022-11-13T12:57:21;6.80;;;2.70;;
3052;SDS011;1536;51.098;6.414;2022-11-13T12:59:51;9.83;;;2.97;;
3052;SDS011;1536;51.098;6.414;2022-11-13T13:02:38;4.47;;;2.87;;
3052;SDS011;1536;51.098;6.414;2022-11-13T13:05:18;9.40;;;2.30;;
3052;SDS011;1536;51.098;6.414;2022-11-13T13:10:49;12.83;;;3.10;;
3052;SDS011;1536;51.098;6.414;2022-11-13T13:13:28;3.17;;;2.50;;
3052;SDS011;1536;51.098;6.414;2022-11-13T13:16:02;3.53;;;2.60;;
3052;SDS011;1536;51.098;6.414;2022-11-13T13:18:33;3.10;;;2.27;;
3052;SDS011;1536;51.098;6.414;2022-11-13T13:21:04;2.00;;;1.90;;
3052;SDS011;1536;51.098;6.414;2022-11-13T13:23:33;3.27;;;2.33;;
3052;SDS011;1536;51.098;6.414;2022-11-13T13:26:03;3.27;;;2.20;;
3052;SDS011;1536;51.098;6.414;2022-11-13T13:28:36;2.87;;;2.37;;
3052;SDS011;1536;51.098;6.414;2022-11-13T13:31:06;4.37;;;2.90;;
3052;SDS011;1536;51.098;6.414;2022-11-13T13:33:46;2.20;;;2.10;;
3052;SDS011;1536;51.098;6.414;2022-11-13T13:36:22;2.70;;;2.50;;
3052;SDS011;1536;51.098;6.414;2022-11-13T13:38:56;2.30;;;2.10;;
3052;SDS011;1536;51.098;6.414;2022-11-13T13:41:32;3.60;;;2.60;;
3052;SDS011;1536;51.098;6.414;2022-11-13T13:44:21;4.13;;;2.73;;
3052;SDS011;1536;51.098;6.414;2022-11-13T13:46:57;2.30;;;2.10;;
3052;SDS011;1536;51.098;6.414;2022-11-13T13:49:23;3.67;;;2.80;;
3052;SDS011;1536;51.098;6.414;2022-11-13T13:51:53;2.90;;;2.60;;
3052;SDS011;1536;51.098;6.414;2022-11-13T13:54:23;2.80;;;2.43;;
3052;SDS011;1536;51.098;6.414;2022-11-13T13:56:54;3.27;;;2.40;;
3052;SDS011;1536;51.098;6.414;2022-11-13T13:59:24;2.40;;;2.20;;
3052;SDS011;1536;51.098;6.414;2022-11-13T14:01:56;2.73;;;2.50;;
3052;SDS011;1536;51.098;6.414;2022-11-13T14:04:24;4.30;;;2.97;;
3052;SDS011;1536;51.098;6.414;2022-11-13T14:06:53;5.87;;;2.53;;
3052;SDS011;1536;51.098;6.414;2022-11-13T14:09:22;4.03;;;2.13;;
3052;SDS011;1536;51.098;6.414;2022-11-13T14:11:55;2.53;;;2.33;;
3052;SDS011;1536;51.098;6.414;2022-11-13T14:14:24;2.40;;;2.10;;
3052;SDS011;1536;51.098;6.414;2022-11-13T14:16:52;3.30;;;2.60;;
3052;SDS011;1536;51.098;6.414;2022-11-13T14:19:21;4.40;;;2.97;;
3052;SDS011;1536;51.098;6.414;2022-11-13T14:21:48;3.07;;;2.77;;
3052;SDS011;1536;51.098;6.414;2022-11-13T14:24:18;7.27;;;2.30;;
3052;SDS011;1536;51.098;6.414;2022-11-13T14:26:48;2.50;;;2.30;;
3052;SDS011;1536;51.098;6.414;2022-11-13T14:29:21;2.60;;;2.40;;
3052;SDS011;1536;51.098;6.414;2022-11-13T14:32:01;2.50;;;2.30;;
3052;SDS011;1536;51.098;6.414;2022-11-13T14:34:28;3.90;;;2.60;;
3052;SDS011;1536;51.098;6.414;2022-11-13T14:36:56;2.47;;;2.27;;
3052;SDS011;1536;51.098;6.414;2022-11-13T14:39:42;3.83;;;3.17;;
3052;SDS011;1536;51.098;6.414;2022-11-13T14:42:13;4.57;;;2.87;;
3052;SDS011;1536;51.098;6.414;2022-11-13T14:44:44;8.20;;;3.00;;
3052;SDS011;1536;51.098;6.414;2022-11-13T14:47:19;2.87;;;2.60;;
3052;SDS011;1536;51.098;6.414;2022-11-13T14:49:48;3.97;;;2.83;;
3052;SDS011;1536;51.098;6.414;2022-11-13T14:52:21;3.70;;;2.73;;
3052;SDS011;1536;51.098;6.414;2022-11-13T14:54:59;2.87;;;2.33;;
3052;SDS011;1536;51.098;6.414;2022-11-13T14:57:27;3.13;;;2.83;;
3052;SDS011;1536;51.098;6.414;2022-11-13T14:59:55;4.30;;;2.90;;
3052;SDS011;1536;51.098;6.414;2022-11-13T15:02:22;4.67;;;3.20;;
3052;SDS011;1536;51.098;6.414;2022-11-13T15:04:49;3.23;;;2.67;;
3052;SDS011;1536;51.098;6.414;2022-11-13T15:07:20;9.77;;;3.30;;
3052;SDS011;1536;51.098;6.414;2022-11-13T15:09:51;3.97;;;3.57;;
3052;SDS011;1536;51.098;6.414;2022-11-13T15:12:18;2.33;;;2.23;;
3052;SDS011;1536;51.098;6.414;2022-11-13T15:14:45;5.83;;;2.70;;
3052;SDS011;1536;51.098;6.414;2022-11-13T15:17:19;2.50;;;2.30;;
3052;SDS011;1536;51.098;6.414;2022-11-13T15:19:47;3.03;;;2.73;;
3052;SDS011;1536;51.098;6.414;2022-11-13T15:22:18;4.63;;;2.50;;
3052;SDS011;1536;51.098;6.414;2022-11-13T15:24:44;3.33;;;3.03;;
3052;SDS011;1536;51.098;6.414;2022-11-13T15:27:12;3.40;;;3.10;;
3052;SDS011;1536;51.098;6.414;2022-11-13T15:29:40;4.10;;;2.80;;
3052;SDS011;1536;51.098;6.414;2022-11-13T15:32:08;4.67;;;3.27;;